Time;durP1;ratioP1;P1;durP2;ratioP2;P2;SDS_P1;SDS_P2;PMS_P1;PMS_P2;Temp;Humidity;BMP_temperature;BMP_pressure;BME280_temperature;BME280_humidity;BME280_pressure;Samples;Min_cycle;Max_cycle;Signal;HPM_P1;HPM_P2
2023/12/26 00:02:25;;;;;;;14.20;2.70;;;;;;;-4.29;100.00;141234.45;106928;1275;25373;-54
2023/12/26 00:05:11;;;;;;;8.90;2.60;;;;;;;-4.27;100.00;141241.13;107100;1272;22594;-60
2023/12/26 00:07:57;;;;;;;12.90;2.90;;;;;;;-4.22;100.00;141253.28;107000;1275;22525;-59
2023/12/26 00:10:44;;;;;;;10.60;2.60;;;;;;;-4.18;100.00;141260.94;106987;1275;22983;-59
2023/12/26 00:13:30;;;;;;;10.30;2.40;;;;;;;-4.18;100.00;141263.17;107062;1276;22526;-60
2023/12/26 00:16:17;;;;;;;8.10;2.40;;;;;;;-4.16;100.00;141267.14;106945;1276;24259;-60
2023/12/26 00:19:04;;;;;;;12.30;3.20;;;;;;;-4.14;100.00;141271.63;106912;1276;22530;-62
2023/12/26 00:21:51;;;;;;;8.80;2.30;;;;;;;-4.13;100.00;141272.84;106911;1276;24269;-57
2023/12/26 00:24:37;;;;;;;11.60;2.80;;;;;;;-4.15;100.00;141269.86;106953;1275;22572;-59
2023/12/26 00:27:24;;;;;;;8.20;2.30;;;;;;;-4.19;100.00;141260.70;106929;1276;22633;-54
2023/12/26 00:30:11;;;;;;;9.20;2.10;;;;;;;-4.25;100.00;141245.09;106923;1276;25336;-58
2023/12/26 00:32:58;;;;;;;12.70;2.60;;;;;;;-4.30;100.00;141232.22;106922;1276;25536;-58
2023/12/26 00:35:44;;;;;;;5.40;2.10;;;;;;;-4.35;100.00;141220.84;106956;1276;25482;-61
2023/12/26 00:38:31;;;;;;;7.40;2.30;;;;;;;-4.38;100.00;141214.38;107029;1253;24266;-60
2023/12/26 00:41:18;;;;;;;7.10;2.60;;;;;;;-4.40;100.00;141209.20;107141;1273;24314;-57
2023/12/26 00:44:05;;;;;;;9.30;2.80;;;;;;;-4.44;100.00;141200.28;107134;1267;22615;-53
2023/12/26 00:46:51;;;;;;;9.00;2.50;;;;;;;-4.49;100.00;141187.16;106926;1276;22570;-55
2023/12/26 00:49:39;;;;;;;5.20;2.00;;;;;;;-4.53;100.00;141176.52;107060;1276;25235;-58
2023/12/26 00:52:26;;;;;;;8.10;2.50;;;;;;;-4.58;100.00;141164.89;106836;1270;23912;-57
2023/12/26 00:55:12;;;;;;;12.10;3.70;;;;;;;-4.61;100.00;141157.20;106808;1276;22527;-57
2023/12/26 00:57:58;;;;;;;7.50;2.30;;;;;;;-4.62;100.00;141155.22;107009;1276;22616;-58
2023/12/26 01:00:45;;;;;;;14.20;2.80;;;;;;;-4.62;100.00;141154.50;107071;1253;22527;-58
2023/12/26 01:03:31;;;;;;;9.10;2.70;;;;;;;-4.63;100.00;141152.48;107139;1269;22530;-61
2023/12/26 01:06:18;;;;;;;13.30;3.30;;;;;;;-4.62;100.00;141155.47;106960;1268;24316;-58
2023/12/26 01:09:05;;;;;;;8.20;3.00;;;;;;;-4.64;100.00;141149.53;107005;1269;22530;-60
2023/12/26 01:11:51;;;;;;;6.50;2.20;;;;;;;-4.67;100.00;141143.09;107051;1276;22530;-61
2023/12/26 01:14:40;;;;;;;10.70;2.90;;;;;;;-4.70;100.00;141136.19;106860;1276;25288;-59
2023/12/26 01:17:26;;;;;;;7.20;2.50;;;;;;;-4.71;100.00;141134.20;107058;1260;25301;-58
2023/12/26 01:20:13;;;;;;;5.60;2.10;;;;;;;-4.74;100.00;141126.27;107032;1276;22641;-57
2023/12/26 01:23:00;;;;;;;8.80;2.50;;;;;;;-4.78;100.00;141117.11;107030;1276;22883;-59
2023/12/26 01:25:46;;;;;;;5.50;2.00;;;;;;;-4.80;100.00;141111.42;107064;1276;24268;-54
2023/12/26 01:28:33;;;;;;;5.30;2.00;;;;;;;-4.83;100.00;141105.50;107089;1275;22525;-56
2023/12/26 01:31:19;;;;;;;8.80;2.50;;;;;;;-4.83;100.00;141103.73;107108;1275;25382;-60
2023/12/26 01:34:06;;;;;;;10.20;3.20;;;;;;;-4.86;100.00;141097.05;107136;1275;22544;-60
2023/12/26 01:36:53;;;;;;;9.50;3.70;;;;;;;-4.89;100.00;141089.14;107081;1275;22548;-60
2023/12/26 01:39:39;;;;;;;9.10;2.60;;;;;;;-4.91;100.00;141084.45;106933;1263;22534;-60
2023/12/26 01:42:25;;;;;;;9.20;3.00;;;;;;;-4.92;100.00;141080.98;107026;1270;25356;-56
2023/12/26 01:45:12;;;;;;;9.30;2.90;;;;;;;-4.94;100.00;141076.78;107004;1276;22513;-59
2023/12/26 01:48:00;;;;;;;8.50;2.30;;;;;;;-4.96;100.00;141071.58;107035;1275;22533;-58
2023/12/26 01:50:48;;;;;;;7.10;1.90;;;;;;;-4.99;100.00;141065.66;107006;1269;22606;-58
2023/12/26 01:53:38;;;;;;;11.60;2.40;;;;;;;-5.01;100.00;141060.94;107033;1275;24416;-59
2023/12/26 01:56:26;;;;;;;10.50;2.80;;;;;;;-4.99;100.00;141063.91;106851;1276;22704;-59
2023/12/26 01:59:12;;;;;;;10.10;2.30;;;;;;;-5.01;100.00;141060.94;106874;1276;22530;-59
2023/12/26 02:01:59;;;;;;;8.50;2.50;;;;;;;-5.02;100.00;141058.22;107087;1272;22532;-58
2023/12/26 02:04:46;;;;;;;9.20;2.40;;;;;;;-5.04;100.00;141054.03;107014;1275;22523;-56
2023/12/26 02:07:33;;;;;;;9.40;2.30;;;;;;;-5.06;100.00;141048.08;107038;1275;25233;-57
2023/12/26 02:10:20;;;;;;;8.70;2.60;;;;;;;-5.08;100.00;141045.84;107068;1272;23177;-58
2023/12/26 02:13:07;;;;;;;10.50;2.40;;;;;;;-5.10;100.00;141039.66;106888;1270;25533;-57
2023/12/26 02:15:57;;;;;;;5.10;1.70;;;;;;;-5.14;100.00;141029.77;106981;1275;22546;-58
2023/12/26 02:18:45;;;;;;;6.60;2.20;;;;;;;-5.16;100.00;141025.06;106997;1273;22532;-55
2023/12/26 02:21:32;;;;;;;11.90;2.40;;;;;;;-5.16;100.00;141024.59;107123;1272;25242;-58
2023/12/26 17:15:41;;;;;;;7.70;4.10;;;;;;;-0.04;100.00;142265.53;103786;1302;544847;-61
2023/12/26 17:18:27;;;;;;;9.70;5.00;;;;;;;-0.02;100.00;142270.03;105815;1288;24296;-60
2023/12/26 17:21:14;;;;;;;6.80;3.40;;;;;;;0.02;100.00;142280.72;106306;1288;22547;-61
2023/12/26 17:24:02;;;;;;;6.80;3.50;;;;;;;0.06;100.00;142288.91;106302;1272;24335;-60
2023/12/26 17:26:49;;;;;;;8.40;3.90;;;;;;;0.12;100.00;142303.58;106399;1288;25317;-59
2023/12/26 17:29:36;;;;;;;7.80;4.10;;;;;;;0.17;100.00;142318.00;106354;1286;140400;-61
2023/12/26 17:32:22;;;;;;;6.20;3.60;;;;;;;0.23;100.00;142330.19;106358;1285;25382;-61
2023/12/26 17:35:09;;;;;;;10.10;4.10;;;;;;;0.27;100.00;142339.63;106370;1283;22538;-61
2023/12/26 17:37:55;;;;;;;6.20;3.40;;;;;;;0.29;100.00;142345.34;106322;1268;24297;-60
2023/12/26 17:40:42;;;;;;;6.70;3.30;;;;;;;0.31;100.00;142351.33;106389;1283;22538;-62
2023/12/26 17:43:29;;;;;;;7.00;3.80;;;;;;;0.37;100.00;142365.25;106316;1269;22549;-61
2023/12/26 17:46:15;;;;;;;6.40;3.20;;;;;;;0.43;100.00;142379.17;106188;1285;25360;-61
2023/12/26 17:49:03;;;;;;;7.30;3.40;;;;;;;0.49;100.00;142393.59;106496;1279;25389;-60
2023/12/26 17:51:49;;;;;;;9.10;3.40;;;;;;;0.53;100.00;142404.03;106260;1283;25313;-61
2023/12/26 17:54:36;;;;;;;7.70;4.00;;;;;;;0.55;100.00;142408.02;106342;1279;25252;-70
2023/12/26 17:57:22;;;;;;;7.10;3.60;;;;;;;0.56;100.00;142410.75;106416;1269;22536;-64
2023/12/26 18:00:10;;;;;;;5.90;2.90;;;;;;;0.56;100.00;142411.00;106310;1285;22535;-63
2023/12/26 18:02:57;;;;;;;6.90;3.80;;;;;;;0.58;100.00;142416.95;106296;1286;22572;-62
2023/12/26 18:05:44;;;;;;;9.90;4.10;;;;;;;0.60;100.00;142421.69;106240;1279;22547;-62
2023/12/26 18:08:31;;;;;;;6.80;3.90;;;;;;;0.61;100.00;142424.44;106315;1285;24264;-62
2023/12/26 18:11:17;;;;;;;7.90;3.70;;;;;;;0.63;100.00;142427.42;106339;1279;22552;-63
2023/12/26 18:14:04;;;;;;;6.60;3.30;;;;;;;0.64;100.00;142432.14;106348;1279;24388;-63
2023/12/26 18:16:50;;;;;;;6.60;3.30;;;;;;;0.67;100.00;142437.09;106253;1285;22539;-62
2023/12/26 18:19:36;;;;;;;7.10;3.30;;;;;;;0.71;100.00;142446.06;106477;1269;22542;-63
2023/12/26 18:22:23;;;;;;;7.10;3.70;;;;;;;0.73;100.00;142451.56;106364;1279;22554;-63
2023/12/26 18:25:09;;;;;;;6.20;3.20;;;;;;;0.74;100.00;142455.78;106164;1285;22545;-63
2023/12/26 18:27:56;;;;;;;6.70;3.50;;;;;;;0.74;100.00;142454.02;106356;1269;24333;-63
2023/12/26 18:30:46;;;;;;;8.20;3.40;;;;;;;0.72;100.00;142449.31;106249;1285;22548;-63
2023/12/26 18:33:32;;;;;;;6.60;3.00;;;;;;;0.72;100.00;142448.56;106423;1282;22727;-64
2023/12/26 18:36:19;;;;;;;5.10;3.10;;;;;;;0.73;100.00;142452.53;106148;1282;25276;-62
2023/12/26 18:39:07;;;;;;;10.30;4.00;;;;;;;0.75;100.00;142458.00;106281;1287;23915;-62
2023/12/26 18:41:54;;;;;;;6.40;3.30;;;;;;;0.76;100.00;142458.25;106359;1279;24281;-63
2023/12/26 18:44:42;;;;;;;7.40;3.60;;;;;;;0.73;100.00;142453.03;106241;1279;22536;-62
2023/12/26 18:47:29;;;;;;;6.40;2.80;;;;;;;0.74;100.00;142454.03;106510;1276;22679;-63
2023/12/26 18:50:16;;;;;;;6.00;3.30;;;;;;;0.75;100.00;142456.53;106424;1279;24398;-63
2023/12/26 18:53:02;;;;;;;7.10;3.60;;;;;;;0.76;100.00;142459.27;106493;1276;22543;-63
2023/12/26 18:55:49;;;;;;;7.40;3.40;;;;;;;0.78;100.00;142465.22;106466;1276;25310;-63
2023/12/26 18:58:36;;;;;;;5.90;3.50;;;;;;;0.80;100.00;142469.22;106437;1276;25300;-63
2023/12/26 19:01:23;;;;;;;5.40;2.80;;;;;;;0.77;100.00;142461.50;106564;1273;22535;-64
2023/12/26 19:04:09;;;;;;;5.50;2.80;;;;;;;0.73;100.00;142452.78;106523;1276;22532;-65
2023/12/26 19:06:56;;;;;;;5.30;2.70;;;;;;;0.72;100.00;142450.55;106723;1283;22539;-64
2023/12/26 19:09:44;;;;;;;5.30;2.70;;;;;;;0.74;100.00;142453.78;106379;1276;25290;-58
2023/12/26 19:12:31;;;;;;;6.10;2.90;;;;;;;0.75;100.00;142456.28;106563;1279;22539;-64
2023/12/26 19:15:19;;;;;;;6.40;2.70;;;;;;;0.75;100.00;142456.53;106401;1265;25358;-62
2023/12/26 19:18:07;;;;;;;5.20;2.60;;;;;;;0.74;100.00;142454.53;106411;1266;25385;-61
2023/12/26 19:20:54;;;;;;;5.10;2.60;;;;;;;0.74;100.00;142454.27;106629;1266;23000;-62
2023/12/26 19:23:40;;;;;;;5.30;2.50;;;;;;;0.73;100.00;142451.53;106791;1266;25255;-59
2023/12/26 19:26:27;;;;;;;3.80;2.00;;;;;;;0.71;100.00;142447.56;107028;1282;22484;-60
2023/12/26 19:29:14;;;;;;;5.00;2.30;;;;;;;0.72;100.00;142448.31;107006;1266;22529;-63
2023/12/26 19:32:00;;;;;;;4.60;2.10;;;;;;;0.71;100.00;142446.58;106428;1276;22535;-64
2023/12/26 19:34:46;;;;;;;5.10;2.60;;;;;;;0.68;100.00;142438.86;106384;1266;22542;-60
2023/12/26 19:37:33;;;;;;;7.60;3.00;;;;;;;0.62;100.00;142425.17;106357;1266;25297;-62
2023/12/26 19:40:19;;;;;;;4.90;2.40;;;;;;;0.56;100.00;142411.98;106479;1266;25094;-62
2023/12/26 19:43:05;;;;;;;3.90;2.10;;;;;;;0.52;100.00;142401.55;106431;1276;23032;-61
2023/12/26 19:45:52;;;;;;;4.70;2.10;;;;;;;0.50;100.00;142396.33;106310;1283;23877;-63
2023/12/26 19:48:39;;;;;;;5.00;2.10;;;;;;;0.49;100.00;142395.34;106373;1282;25283;-61
2023/12/26 19:51:26;;;;;;;3.90;2.10;;;;;;;0.49;100.00;142394.84;106779;1262;22532;-65
2023/12/26 19:54:16;;;;;;;4.80;2.40;;;;;;;0.49;100.00;142394.59;106805;1262;22538;-63
2023/12/26 19:57:03;;;;;;;6.80;2.90;;;;;;;0.50;100.00;142396.31;106787;1276;22527;-64
2023/12/26 19:59:49;;;;;;;4.40;2.30;;;;;;;0.53;100.00;142402.30;106845;1262;22532;-63
2023/12/26 20:02:36;;;;;;;5.00;2.30;;;;;;;0.56;100.00;142410.75;106936;1276;22523;-61
2023/12/26 20:05:22;;;;;;;4.50;2.00;;;;;;;0.59;100.00;142418.72;106999;1278;24269;-61
2023/12/26 20:08:08;;;;;;;5.00;2.50;;;;;;;0.64;100.00;142432.41;106890;1278;23123;-62
2023/12/26 20:10:55;;;;;;;5.40;2.60;;;;;;;0.71;100.00;142445.83;106823;1262;24381;-62
2023/12/26 20:13:44;;;;;;;5.10;2.40;;;;;;;0.74;100.00;142453.53;106858;1263;22526;-62
2023/12/26 20:16:30;;;;;;;5.60;2.60;;;;;;;0.74;100.00;142455.28;106803;1263;22526;-61
2023/12/26 20:19:18;;;;;;;4.90;2.30;;;;;;;0.74;100.00;142454.28;106814;1277;22530;-62
2023/12/26 20:22:05;;;;;;;5.20;1.80;;;;;;;0.74;100.00;142454.77;106786;1270;25372;-63
2023/12/26 20:24:53;;;;;;;5.40;2.50;;;;;;;0.76;100.00;142459.52;106883;1277;22530;-63
2023/12/26 20:27:40;;;;;;;4.80;2.20;;;;;;;0.76;100.00;142460.75;106876;1262;22532;-62
2023/12/26 20:30:27;;;;;;;4.50;2.30;;;;;;;0.77;100.00;142462.75;106854;1263;22533;-62
2023/12/26 20:33:14;;;;;;;7.30;2.50;;;;;;;0.78;100.00;142464.97;106885;1275;26517;-61
2023/12/26 20:36:01;;;;;;;5.90;2.30;;;;;;;0.79;100.00;142466.70;106800;1278;22533;-62
2023/12/26 20:38:47;;;;;;;4.60;2.30;;;;;;;0.79;100.00;142466.72;106911;1260;22536;-63
2023/12/26 20:41:34;;;;;;;5.50;2.40;;;;;;;0.78;100.00;142465.22;106822;1278;24439;-63
2023/12/26 20:44:21;;;;;;;4.20;2.20;;;;;;;0.76;100.00;142459.25;106836;1278;22639;-65
2023/12/26 20:47:07;;;;;;;4.70;2.60;;;;;;;0.73;100.00;142453.03;106712;1261;24203;-65
2023/12/26 20:49:53;;;;;;;5.40;2.10;;;;;;;0.71;100.00;142446.58;106704;1278;22879;-64
